createdAt,value
2023-01-01T00:01:30.975Z,100636.28
2023-01-01T00:04:01.050Z,100640.13
2023-01-01T00:06:31.660Z,100636.34
2023-01-01T00:09:21.527Z,100638.28
2023-01-01T00:11:51.276Z,100630.28
2023-01-01T00:14:20.989Z,100623.63
2023-01-01T00:16:50.905Z,100619.00
2023-01-01T00:19:21.759Z,100625.72
2023-01-01T00:21:52.383Z,100630.94
2023-01-01T00:24:22.993Z,100632.66
2023-01-01T00:26:53.626Z,100641.50
2023-01-01T00:29:23.361Z,100638.78
2023-01-01T00:31:54.010Z,100625.72
2023-01-01T00:34:23.759Z,100627.38
2023-01-01T00:36:53.493Z,100625.00
2023-01-01T00:39:23.315Z,100638.06
2023-01-01T00:41:53.898Z,100631.91
2023-01-01T00:44:24.494Z,100638.06
2023-01-01T00:46:54.268Z,100642.50
2023-01-01T00:49:24.015Z,100650.50
2023-01-01T00:51:54.903Z,100649.50
2023-01-01T00:54:25.484Z,100653.94
2023-01-01T00:56:55.894Z,100655.50
2023-01-01T00:59:28.972Z,100658.25
2023-01-01T01:01:59.979Z,100645.31
2023-01-01T01:04:29.855Z,100643.56
2023-01-01T01:06:59.472Z,100638.69
2023-01-01T01:09:29.184Z,100643.75
2023-01-01T01:12:18.785Z,100640.06
2023-01-01T01:14:49.021Z,100649.78
2023-01-01T01:17:19.663Z,100649.56
2023-01-01T01:19:50.321Z,100645.25
2023-01-01T01:22:27.792Z,100638.22
2023-01-01T01:24:59.081Z,100641.44
2023-01-01T01:27:28.940Z,100634.50
2023-01-01T01:29:59.571Z,100625.00
2023-01-01T01:32:30.161Z,100610.06
2023-01-01T01:35:00.741Z,100610.94
2023-01-01T01:37:31.299Z,100620.88
2023-01-01T01:40:01.997Z,100619.50
2023-01-01T01:42:32.596Z,100614.09
2023-01-01T01:45:07.374Z,100614.41
2023-01-01T01:47:58.179Z,100616.88
2023-01-01T01:50:38.316Z,100620.53
2023-01-01T01:53:24.138Z,100625.22
2023-01-01T01:56:05.155Z,100624.47
2023-01-01T01:58:36.772Z,100630.78
2023-01-01T02:01:07.456Z,100617.78
2023-01-01T02:04:02.216Z,100620.97
2023-01-01T02:06:33.779Z,100620.97
2023-01-01T02:09:08.171Z,100620.47
2023-01-01T02:11:38.729Z,100623.91
2023-01-01T02:14:09.646Z,100622.00
2023-01-01T02:17:55.636Z,100615.22
2023-01-01T02:20:52.109Z,100599.19
2023-01-01T02:23:44.768Z,100604.47
2023-01-01T02:26:55.098Z,100594.78
2023-01-01T02:29:51.514Z,100601.88
2023-01-01T02:33:06.140Z,100607.91
2023-01-01T02:35:52.410Z,100612.47
2023-01-01T02:38:51.405Z,100624.84
2023-01-01T02:41:44.628Z,100630.78
2023-01-01T02:44:14.567Z,100625.03
2023-01-01T02:46:44.114Z,100634.59
2023-01-01T02:49:13.939Z,100642.38
2023-01-01T02:52:12.241Z,100641.81
2023-01-01T02:55:02.942Z,100631.06
2023-01-01T02:57:44.055Z,100640.75
2023-01-01T03:00:31.512Z,100634.66
2023-01-01T03:04:13.475Z,100638.94
2023-01-01T03:11:06.628Z,100627.59
2023-01-01T03:14:32.817Z,100637.94
2023-01-01T03:17:26.938Z,100643.66
2023-01-01T03:20:01.907Z,100646.97
2023-01-01T03:25:29.697Z,100638.41
2023-01-01T03:28:26.334Z,100634.25
2023-01-01T03:30:57.766Z,100623.38
2023-01-01T03:33:48.039Z,100631.38
2023-01-01T03:36:35.532Z,100626.94
2023-01-01T03:39:20.704Z,100626.06
2023-01-01T03:42:38.456Z,100621.88
2023-01-01T03:45:36.815Z,100620.03
2023-01-01T03:48:07.439Z,100625.25
2023-01-01T03:51:27.772Z,100631.38
2023-01-01T03:54:09.423Z,100626.19
2023-01-01T03:57:16.023Z,100625.09
2023-01-01T04:00:11.474Z,100639.94
2023-01-01T04:03:06.415Z,100643.44
2023-01-01T04:05:42.933Z,100627.91
2023-01-01T04:08:15.481Z,100632.25
2023-01-01T04:11:00.982Z,100635.91
2023-01-01T04:13:30.625Z,100639.31
2023-01-01T04:16:00.483Z,100638.38
2023-01-01T04:18:30.970Z,100641.13
2023-01-01T04:21:00.614Z,100644.50
2023-01-01T04:23:30.282Z,100650.09
2023-01-01T04:25:59.875Z,100647.47
2023-01-01T04:28:29.606Z,100651.88
2023-01-01T04:31:03.107Z,100652.75
2023-01-01T04:33:33.100Z,100648.22
2023-01-01T04:36:09.362Z,100648.22
2023-01-01T04:38:39.346Z,100648.19
2023-01-01T04:41:10.430Z,100655.28
2023-01-01T04:43:40.139Z,100644.47
2023-01-01T04:46:10.030Z,100648.84
2023-01-01T04:48:39.714Z,100649.19
2023-01-01T04:51:12.759Z,100649.25
2023-01-01T04:53:43.345Z,100644.78
2023-01-01T04:56:23.497Z,100646.47
2023-01-01T04:58:54.086Z,100642.97
2023-01-01T05:01:31.490Z,100636.03
2023-01-01T05:04:01.985Z,100633.16
2023-01-01T05:06:31.649Z,100638.50
2023-01-01T05:09:04.214Z,100644.91
2023-01-01T05:11:33.944Z,100643.13
2023-01-01T05:14:03.835Z,100648.38
2023-01-01T05:16:38.256Z,100637.69
2023-01-01T05:19:10.721Z,100647.47
2023-01-01T05:21:41.359Z,100653.69
2023-01-01T05:24:11.496Z,100648.41
2023-01-01T05:26:45.530Z,100649.22
2023-01-01T05:29:17.376Z,100644.13
2023-01-01T05:31:47.311Z,100638.84
2023-01-01T05:34:17.007Z,100651.03
2023-01-01T05:36:46.700Z,100640.56
2023-01-01T05:39:17.187Z,100637.06
2023-01-01T05:41:46.869Z,100630.72
2023-01-01T05:44:17.492Z,100636.94
2023-01-01T05:46:47.128Z,100637.81
2023-01-01T05:49:16.777Z,100649.13
2023-01-01T05:51:46.430Z,100655.50
2023-01-01T05:56:44.404Z,100653.81
2023-01-01T05:59:12.387Z,100663.41
2023-01-01T06:01:45.891Z,100661.66
2023-01-01T06:04:16.908Z,100676.72
2023-01-01T06:06:46.551Z,100669.63
2023-01-01T06:09:17.047Z,100668.69
2023-01-01T06:11:47.504Z,100663.41
2023-01-01T06:14:17.165Z,100667.91
2023-01-01T06:16:47.690Z,100669.69
2023-01-01T06:19:17.332Z,100666.31
2023-01-01T06:21:47.038Z,100659.91
2023-01-01T06:24:16.631Z,100674.63
2023-01-01T06:26:46.251Z,100687.97
2023-01-01T06:29:15.872Z,100685.31
2023-01-01T06:31:45.531Z,100693.16
2023-01-01T06:34:15.162Z,100703.03
2023-01-01T06:36:44.805Z,100707.53
2023-01-01T06:39:14.473Z,100714.50
2023-01-01T06:41:42.298Z,100704.03
2023-01-01T06:44:12.749Z,100713.53
2023-01-01T06:46:42.456Z,100708.28
2023-01-01T06:49:13.361Z,100715.50
2023-01-01T06:51:44.664Z,100710.91
2023-01-01T06:54:14.298Z,100727.75
2023-01-01T06:56:44.793Z,100729.53
2023-01-01T06:59:16.551Z,100736.47
2023-01-01T07:01:47.106Z,100739.22
2023-01-01T07:04:17.738Z,100737.50
2023-01-01T07:06:47.352Z,100747.94
2023-01-01T07:09:16.953Z,100752.47
2023-01-01T07:11:46.489Z,100738.25
2023-01-01T07:14:16.077Z,100753.28
2023-01-01T07:16:45.652Z,100762.88
2023-01-01T07:19:15.258Z,100751.31
2023-01-01T07:21:51.985Z,100759.22
2023-01-01T07:24:23.520Z,100758.41
2023-01-01T07:26:53.165Z,100751.25
2023-01-01T07:29:22.759Z,100747.72
2023-01-01T07:31:52.475Z,100756.31
2023-01-01T07:34:23.988Z,100745.66
2023-01-01T07:36:55.428Z,100746.47
2023-01-01T07:39:25.928Z,100743.66
2023-01-01T07:41:55.565Z,100752.56
2023-01-01T07:44:25.163Z,100752.78
2023-01-01T07:47:06.445Z,100754.38
2023-01-01T07:49:36.039Z,100754.13
2023-01-01T07:52:05.712Z,100759.66
2023-01-01T07:54:35.300Z,100761.22
2023-01-01T07:57:04.950Z,100755.84
2023-01-01T07:59:34.637Z,100761.19
2023-01-01T08:02:04.932Z,100749.50
2023-01-01T08:04:34.592Z,100750.00
2023-01-01T08:07:04.155Z,100751.81
2023-01-01T08:09:33.806Z,100754.53
2023-01-01T08:12:03.599Z,100749.94
2023-01-01T08:14:31.371Z,100761.31
2023-01-01T08:17:00.987Z,100756.88
2023-01-01T08:19:30.609Z,100765.69
2023-01-01T08:22:00.319Z,100765.66
2023-01-01T08:24:29.033Z,100777.75
2023-01-01T08:26:58.706Z,100777.50
2023-01-01T08:29:28.499Z,100783.91
2023-01-01T08:31:58.390Z,100788.28
2023-01-01T08:34:28.839Z,100787.69
2023-01-01T08:36:57.136Z,100791.31
2023-01-01T08:39:27.871Z,100785.53
2023-01-01T08:41:57.550Z,100789.53
2023-01-01T08:44:27.101Z,100793.09
2023-01-01T08:46:56.650Z,100787.53
2023-01-01T08:49:26.216Z,100798.09
2023-01-01T08:51:55.804Z,100797.03
2023-01-01T08:54:25.367Z,100803.00
2023-01-01T08:56:54.922Z,100802.81
2023-01-01T08:59:24.908Z,100805.81
2023-01-01T09:01:52.879Z,100804.59
2023-01-01T09:04:22.547Z,100806.84
2023-01-01T09:06:52.731Z,100787.56
2023-01-01T09:09:27.279Z,100807.50
2023-01-01T09:12:06.139Z,100801.13
2023-01-01T09:14:36.167Z,100806.28
2023-01-01T09:17:05.770Z,100799.28
2023-01-01T09:19:35.387Z,100799.19
2023-01-01T09:22:04.870Z,100799.75
2023-01-01T09:24:33.481Z,100784.81
2023-01-01T09:27:03.104Z,100784.16
2023-01-01T09:29:32.761Z,100773.66
2023-01-01T09:32:02.396Z,100783.69
2023-01-01T09:34:32.927Z,100776.97
2023-01-01T09:37:02.589Z,100772.75
2023-01-01T09:39:32.168Z,100774.41
2023-01-01T09:42:50.130Z,100764.94
2023-01-01T09:45:55.489Z,100772.09
2023-01-01T09:48:29.829Z,100783.94
2023-01-01T09:51:03.687Z,100778.31
2023-01-01T09:53:57.404Z,100777.56
2023-01-01T09:56:29.965Z,100785.34
2023-01-01T09:58:59.989Z,100787.91
2023-01-01T10:02:12.019Z,100782.09
2023-01-01T10:05:09.881Z,100788.78
2023-01-01T10:08:02.045Z,100794.72
2023-01-01T10:10:50.187Z,100790.88
2023-01-01T10:13:52.036Z,100780.38
2023-01-01T10:16:30.866Z,100781.22
2023-01-01T10:19:23.543Z,100779.13
2023-01-01T10:21:59.476Z,100778.16
2023-01-01T10:24:37.779Z,100776.38
2023-01-01T10:27:09.433Z,100777.06
2023-01-01T10:29:48.545Z,100776.44
2023-01-01T10:32:29.344Z,100773.00
2023-01-01T10:35:01.077Z,100764.03
2023-01-01T10:37:37.141Z,100773.56
2023-01-01T10:40:24.134Z,100769.59
2023-01-01T10:42:57.750Z,100760.22
2023-01-01T10:45:47.530Z,100766.34
2023-01-01T10:48:22.182Z,100764.22
2023-01-01T10:51:06.740Z,100759.28
2023-01-01T10:53:52.437Z,100771.81
2023-01-01T10:56:29.030Z,100759.75
2023-01-01T10:58:59.005Z,100760.19
2023-01-01T11:01:34.220Z,100761.06
2023-01-01T11:04:21.635Z,100751.03
2023-01-01T11:06:51.249Z,100756.53
2023-01-01T11:09:29.756Z,100759.78
2023-01-01T11:12:19.098Z,100757.09
2023-01-01T11:14:59.599Z,100749.94
2023-01-01T11:17:36.436Z,100741.16
2023-01-01T11:20:07.930Z,100733.88
2023-01-01T11:22:50.455Z,100738.63
2023-01-01T11:25:32.705Z,100728.66
2023-01-01T11:28:17.534Z,100718.94
2023-01-01T11:31:07.306Z,100705.34
2023-01-01T11:33:53.126Z,100701.69
2023-01-01T11:36:35.133Z,100691.59
2023-01-01T11:39:27.855Z,100689.25
2023-01-01T11:41:59.443Z,100672.03
2023-01-01T11:44:48.954Z,100682.16
2023-01-01T11:47:42.963Z,100676.84
2023-01-01T11:50:32.242Z,100679.09
2023-01-01T11:53:28.204Z,100688.47
2023-01-01T11:56:17.914Z,100689.31
2023-01-01T11:59:00.513Z,100689.94
2023-01-01T12:02:05.127Z,100699.88
2023-01-01T12:04:46.462Z,100700.53
2023-01-01T12:07:39.212Z,100704.34
2023-01-01T12:10:31.314Z,100693.38
2023-01-01T12:13:18.864Z,100692.84
2023-01-01T12:16:09.777Z,100691.78
2023-01-01T12:18:55.791Z,100686.94
2023-01-01T12:21:30.175Z,100681.88
2023-01-01T12:24:08.004Z,100670.13
2023-01-01T12:27:13.840Z,100674.81
2023-01-01T12:30:13.743Z,100669.38
2023-01-01T12:33:24.331Z,100654.28
2023-01-01T12:36:25.522Z,100660.78
2023-01-01T12:39:40.695Z,100650.34
2023-01-01T12:42:41.981Z,100649.16
2023-01-01T12:46:17.381Z,100642.81
2023-01-01T12:49:08.852Z,100652.75
2023-01-01T12:52:19.660Z,100654.13
2023-01-01T12:55:45.287Z,100644.03
2023-01-01T12:58:59.252Z,100645.00
2023-01-01T13:01:33.754Z,100646.13
2023-01-01T13:04:16.600Z,100639.56
2023-01-01T13:07:03.776Z,100647.66
2023-01-01T13:09:44.777Z,100644.34
2023-01-01T13:12:24.665Z,100643.75
2023-01-01T13:14:54.290Z,100649.94
2023-01-01T13:17:25.592Z,100641.28
2023-01-01T13:20:20.428Z,100650.75
2023-01-01T13:22:50.047Z,100661.69
2023-01-01T13:25:25.127Z,100670.63
2023-01-01T13:27:57.851Z,100669.25
2023-01-01T13:30:44.299Z,100682.53
2023-01-01T13:33:37.120Z,100674.88
2023-01-01T13:36:19.897Z,100669.22
2023-01-01T13:38:54.529Z,100670.94
2023-01-01T13:41:44.055Z,100673.50
2023-01-01T13:44:24.474Z,100680.63
2023-01-01T13:47:27.649Z,100670.16
2023-01-01T13:50:46.706Z,100667.91
2023-01-01T13:53:33.208Z,100663.63
2023-01-01T13:56:57.573Z,100668.44
2023-01-01T13:59:38.663Z,100676.47
2023-01-01T14:02:30.464Z,100678.66
2023-01-01T14:05:24.674Z,100678.44
2023-01-01T14:07:56.414Z,100689.72
2023-01-01T14:10:37.007Z,100680.09
2023-01-01T14:13:06.519Z,100680.94
2023-01-01T14:15:52.599Z,100695.94
2023-01-01T14:18:33.902Z,100695.81
2023-01-01T14:21:34.318Z,100696.53
2023-01-01T14:24:24.631Z,100698.81
2023-01-01T14:27:30.475Z,100700.16
2023-01-01T14:30:19.615Z,100719.78
2023-01-01T14:33:30.958Z,100718.75
2023-01-01T14:36:34.349Z,100713.00
2023-01-01T14:39:37.799Z,100715.63
2023-01-01T14:42:29.162Z,100711.56
2023-01-01T14:45:19.488Z,100700.34
2023-01-01T14:48:20.854Z,100715.81
2023-01-01T14:51:16.024Z,100708.19
2023-01-01T14:53:55.392Z,100706.56
2023-01-01T14:56:36.648Z,100707.66
2023-01-01T14:59:32.234Z,100711.06
2023-01-01T15:02:20.451Z,100714.84
2023-01-01T15:04:49.378Z,100720.94
2023-01-01T15:07:30.889Z,100722.69
2023-01-01T15:10:03.749Z,100719.00
2023-01-01T15:12:37.467Z,100722.25
2023-01-01T15:15:34.941Z,100720.66
2023-01-01T15:18:05.086Z,100718.31
2023-01-01T15:20:36.312Z,100715.41
2023-01-01T15:23:10.383Z,100727.00
2023-01-01T15:25:43.323Z,100720.34
2023-01-01T15:28:20.850Z,100722.66
2023-01-01T15:30:56.013Z,100734.84
2023-01-01T15:33:27.320Z,100735.41
2023-01-01T15:36:01.227Z,100726.34
2023-01-01T15:38:34.762Z,100736.47
2023-01-01T15:41:43.663Z,100728.84
2023-01-01T15:44:36.299Z,100725.84
2023-01-01T15:47:13.843Z,100731.91
2023-01-01T15:49:43.809Z,100729.22
2023-01-01T15:52:27.502Z,100735.75
2023-01-01T15:54:55.329Z,100741.97
2023-01-01T15:57:25.811Z,100733.75
2023-01-01T15:59:53.948Z,100725.06
2023-01-01T16:02:37.620Z,100726.44
2023-01-01T16:05:18.858Z,100737.78
2023-01-01T16:08:00.180Z,100748.31
2023-01-01T16:10:31.941Z,100740.06
2023-01-01T16:13:01.931Z,100752.72
2023-01-01T16:15:31.785Z,100762.94
2023-01-01T16:18:01.264Z,100767.75
2023-01-01T16:20:30.824Z,100775.47
2023-01-01T16:23:00.379Z,100781.75
2023-01-01T16:25:30.161Z,100777.53
2023-01-01T16:27:59.869Z,100779.59
2023-01-01T16:30:27.649Z,100772.59
2023-01-01T16:32:57.571Z,100777.53
2023-01-01T16:35:27.228Z,100779.06
2023-01-01T16:37:56.831Z,100768.56
2023-01-01T16:40:30.277Z,100781.03
2023-01-01T16:43:05.848Z,100782.63
2023-01-01T16:45:34.437Z,100780.56
2023-01-01T16:48:04.248Z,100777.63
2023-01-01T16:50:33.836Z,100786.38
2023-01-01T16:53:03.423Z,100792.00
2023-01-01T16:55:33.545Z,100793.06
2023-01-01T16:58:46.861Z,100792.72
2023-01-01T17:01:01.245Z,100803.56
2023-01-01T17:03:30.899Z,100798.50
2023-01-01T17:06:06.453Z,100798.13
2023-01-01T17:08:37.580Z,100790.41
2023-01-01T17:11:18.452Z,100802.22
2023-01-01T17:13:49.078Z,100799.38
2023-01-01T17:16:27.115Z,100802.31
2023-01-01T17:19:16.691Z,100802.94
2023-01-01T17:22:07.315Z,100797.28
2023-01-01T17:24:56.820Z,100805.38
2023-01-01T17:27:46.526Z,100804.47
2023-01-01T17:30:19.852Z,100801.63
2023-01-01T17:32:49.549Z,100798.84
2023-01-01T17:35:20.742Z,100797.59
2023-01-01T17:37:50.213Z,100799.78
2023-01-01T17:40:19.781Z,100798.97
2023-01-01T17:42:49.282Z,100796.63
2023-01-01T17:45:38.832Z,100795.41
2023-01-01T17:48:28.322Z,100785.59
2023-01-01T17:51:19.645Z,100794.06
2023-01-01T17:54:06.551Z,100788.63
2023-01-01T17:56:36.339Z,100793.34
2023-01-01T17:59:06.115Z,100798.72
2023-01-01T18:01:36.011Z,100802.44
2023-01-01T18:04:09.548Z,100794.34
2023-01-01T18:06:43.298Z,100803.94
2023-01-01T18:09:15.008Z,100799.88
2023-01-01T18:11:45.509Z,100809.38
2023-01-01T18:14:18.452Z,100809.38
2023-01-01T18:16:52.130Z,100808.28
2023-01-01T18:19:21.789Z,100812.66
2023-01-01T18:21:51.435Z,100810.00
2023-01-01T18:24:21.032Z,100808.28
2023-01-01T18:26:50.574Z,100803.19
2023-01-01T18:29:20.158Z,100814.69
2023-01-01T18:31:51.563Z,100811.13
2023-01-01T18:34:21.318Z,100810.03
2023-01-01T18:36:50.778Z,100806.56
2023-01-01T18:39:30.295Z,100809.75
2023-01-01T18:42:38.263Z,100811.31
2023-01-01T18:45:22.393Z,100793.19
2023-01-01T18:47:51.967Z,100809.06
2023-01-01T18:50:27.807Z,100803.94
2023-01-01T18:53:14.310Z,100803.81
2023-01-01T18:56:09.712Z,100807.22
2023-01-01T18:58:44.057Z,100803.09
2023-01-01T19:01:19.172Z,100807.94
2023-01-01T19:04:12.378Z,100807.53
2023-01-01T19:06:42.310Z,100807.66
2023-01-01T19:09:24.469Z,100805.88
2023-01-01T19:11:55.813Z,100811.13
2023-01-01T19:14:28.886Z,100803.31
2023-01-01T19:17:12.103Z,100802.53
2023-01-01T19:19:41.827Z,100802.28
2023-01-01T19:22:34.054Z,100802.28
2023-01-01T19:25:38.090Z,100802.84
2023-01-01T19:28:34.121Z,100802.19
2023-01-01T19:31:07.150Z,100802.88
2023-01-01T19:33:36.762Z,100799.38
2023-01-01T19:36:07.899Z,100801.91
2023-01-01T19:38:39.625Z,100799.38
2023-01-01T19:41:09.614Z,100799.28
2023-01-01T19:43:39.561Z,100801.63
2023-01-01T19:46:10.074Z,100803.31
2023-01-01T19:48:41.174Z,100800.94
2023-01-01T19:51:10.733Z,100787.63
2023-01-01T19:53:40.325Z,100799.22
2023-01-01T19:56:09.621Z,100793.16
2023-01-01T19:58:37.837Z,100795.03
2023-01-01T20:01:07.497Z,100790.34
2023-01-01T20:03:55.427Z,100789.00
2023-01-01T20:06:26.964Z,100780.31
2023-01-01T20:08:59.167Z,100784.88
2023-01-01T20:11:31.853Z,100780.69
2023-01-01T20:14:01.403Z,100788.88
2023-01-01T20:16:31.045Z,100789.59
2023-01-01T20:19:00.708Z,100792.91
2023-01-01T20:21:48.898Z,100783.72
2023-01-01T20:24:18.540Z,100788.28
2023-01-01T20:26:51.234Z,100785.59
2023-01-01T20:29:20.834Z,100786.06
2023-01-01T20:31:53.657Z,100788.47
2023-01-01T20:34:23.981Z,100781.31
2023-01-01T20:37:12.035Z,100785.81
2023-01-01T20:39:41.729Z,100780.00
2023-01-01T20:42:11.320Z,100774.25
2023-01-01T20:44:43.309Z,100777.72
2023-01-01T20:47:15.954Z,100779.53
2023-01-01T20:49:45.659Z,100784.22
2023-01-01T20:52:16.677Z,100780.00
2023-01-01T20:54:44.459Z,100785.56
2023-01-01T20:57:14.080Z,100788.47
2023-01-01T20:59:44.842Z,100793.44
2023-01-01T21:02:14.818Z,100801.63
2023-01-01T21:04:44.558Z,100796.16
2023-01-01T21:07:14.174Z,100789.03
2023-01-01T21:09:43.710Z,100789.44
2023-01-01T21:12:13.718Z,100789.84
2023-01-01T21:14:43.956Z,100789.72
2023-01-01T21:17:23.217Z,100788.00
2023-01-01T21:19:56.782Z,100784.09
2023-01-01T21:22:28.293Z,100782.53
2023-01-01T21:25:16.782Z,100787.97
2023-01-01T21:27:47.615Z,100786.94
2023-01-01T21:30:17.478Z,100786.56
2023-01-01T21:32:49.843Z,100787.00
2023-01-01T21:35:29.657Z,100787.00
2023-01-01T21:38:02.752Z,100787.78
2023-01-01T21:40:58.858Z,100779.88
2023-01-01T21:43:37.618Z,100784.38
2023-01-01T21:46:07.137Z,100783.63
2023-01-01T21:48:40.505Z,100778.03
2023-01-01T21:51:42.413Z,100776.91
2023-01-01T21:54:14.492Z,100775.25
2023-01-01T21:56:55.769Z,100777.69
2023-01-01T21:59:54.987Z,100776.22
2023-01-01T22:02:38.904Z,100778.25
2023-01-01T22:05:31.232Z,100776.59
2023-01-01T22:08:25.290Z,100770.00
2023-01-01T22:10:56.818Z,100773.63
2023-01-01T22:13:27.928Z,100778.13
2023-01-01T22:15:57.536Z,100772.44
2023-01-01T22:18:31.153Z,100772.72
2023-01-01T22:21:02.869Z,100766.41
2023-01-01T22:23:41.642Z,100765.50
2023-01-01T22:26:29.312Z,100760.84
2023-01-01T22:29:24.716Z,100762.38
2023-01-01T22:32:29.944Z,100770.41
2023-01-01T22:35:34.121Z,100762.97
2023-01-01T22:38:07.527Z,100762.50
2023-01-01T22:40:40.975Z,100761.50
2023-01-01T22:43:13.648Z,100762.94
2023-01-01T22:45:47.754Z,100759.59
2023-01-01T22:48:38.809Z,100758.91
2023-01-01T22:51:23.247Z,100754.91
2023-01-01T22:53:52.933Z,100753.13
2023-01-01T22:56:22.497Z,100745.13
2023-01-01T22:58:57.304Z,100754.19
2023-01-01T23:01:27.203Z,100746.72
2023-01-01T23:03:56.815Z,100738.31
2023-01-01T23:06:27.048Z,100734.16
2023-01-01T23:08:57.842Z,100734.31
2023-01-01T23:11:28.591Z,100735.63
2023-01-01T23:14:15.823Z,100725.75
2023-01-01T23:16:45.332Z,100726.28
2023-01-01T23:19:15.988Z,100729.75
2023-01-01T23:21:46.217Z,100726.25
2023-01-01T23:24:20.709Z,100721.50
2023-01-01T23:26:52.051Z,100724.72
2023-01-01T23:29:24.002Z,100723.13
2023-01-01T23:31:53.659Z,100720.75
2023-01-01T23:34:23.635Z,100725.16
2023-01-01T23:36:55.395Z,100727.53
2023-01-01T23:39:25.011Z,100723.94
2023-01-01T23:41:54.637Z,100716.19
2023-01-01T23:44:24.076Z,100715.97
2023-01-01T23:46:54.493Z,100711.22
2023-01-01T23:49:24.286Z,100714.81
2023-01-01T23:51:55.413Z,100708.19
2023-01-01T23:54:25.001Z,100701.94
2023-01-01T23:56:54.564Z,100693.94
2023-01-01T23:59:24.094Z,100701.03
